createdAt,value
2018-03-02T14:39:26.499Z,32.57
2018-03-02T14:42:02.562Z,32.95
2018-03-02T14:44:30.882Z,33.36
2018-03-02T14:46:59.188Z,33.61
2018-03-02T14:49:27.469Z,33.55
2018-03-02T14:51:55.767Z,33.52
2018-03-02T14:54:24.065Z,33.72
2018-03-02T14:56:55.670Z,33.94
2018-03-02T14:59:23.984Z,34.11
2018-03-02T15:01:52.365Z,34.21
2018-03-02T15:04:20.702Z,34.28
2018-03-02T15:06:49.134Z,34.22
2018-03-02T15:09:17.458Z,34.32
2018-03-02T15:11:45.759Z,32.91
2018-03-02T15:14:14.057Z,33.41
2018-03-02T15:16:42.341Z,33.95
2018-03-02T15:19:10.642Z,33.99
2018-03-02T15:21:38.928Z,34.02
2018-03-02T15:24:07.231Z,34.53
2018-03-02T15:26:36.034Z,34.30
2018-03-02T15:29:04.347Z,34.24
2018-03-02T15:31:32.661Z,33.94
2018-03-02T15:34:00.946Z,33.87
2018-03-02T15:36:29.238Z,33.94
2018-03-02T15:38:57.568Z,33.91
2018-03-02T15:41:25.862Z,33.75
2018-03-02T15:43:54.179Z,33.69
2018-03-02T15:46:22.898Z,33.77
2018-03-02T15:48:51.919Z,33.70
2018-03-02T15:51:20.263Z,33.66
2018-03-02T15:53:48.591Z,33.64
2018-03-02T15:56:16.889Z,33.54
2018-03-02T15:58:45.122Z,33.58
2018-03-02T16:01:13.436Z,33.44
2018-03-02T16:03:41.734Z,33.33
2018-03-02T16:06:10.020Z,33.26
2018-03-02T16:08:38.372Z,33.25
2018-03-02T16:11:06.672Z,33.24
2018-03-02T16:16:28.156Z,33.15
2018-03-02T16:18:56.487Z,33.16
2018-03-02T16:21:24.793Z,33.18
2018-03-02T16:23:53.355Z,33.24
2018-03-02T16:26:21.684Z,33.04
2018-03-02T16:28:49.985Z,32.96
2018-03-02T16:31:18.278Z,32.86
2018-03-02T16:33:46.590Z,32.82
